Terminal Aerodrome Forecast
Issued by NWS

Home | Current Version | Previous Version | Graphics & Text | Print | Product List | Glossary On
Versions: 1 2 3 4 5 6 7 8 9 10 11 12 13 14
000
FTUS43 KICT 282300
TAFCNU
TAF
KCNU 282336Z 2900/2924 VRB05KT P6SM SKC
      TEMPO 2911/2913 4SM BR
     FM291700 17005KT P6SM FEW060=

USA.gov is the U.S. government's official web portal to all federal, state and local government web resources and services.